Time;durP1;ratioP1;P1;durP2;ratioP2;P2;SDS_P1;SDS_P2;PMS_P1;PMS_P2;Temp;Humidity;BMP_temperature;BMP_pressure;BME280_temperature;BME280_humidity;BME280_pressure;Samples;Min_cycle;Max_cycle;Signal;HPM_P1;HPM_P2
2023/05/13 00:01:19;;;;;;;;;;;9.00;99.90;;;;;;5105853;28;20112;-70
2023/05/13 00:03:46;;;;;;;;;;;9.00;99.90;;;;;;5105312;28;19920;-69
2023/05/13 00:06:13;;;;;;;;;;;9.00;99.90;;;;;;5105091;28;20204;-69
2023/05/13 00:08:39;;;;;;;;;;;9.00;99.90;;;;;;5105575;28;19926;-69
2023/05/13 00:11:06;;;;;;;;;;;8.90;99.90;;;;;;5099554;28;20159;-69
2023/05/13 00:13:33;;;;;;;;;;;8.90;99.90;;;;;;5105574;28;19924;-69
2023/05/13 00:16:02;;;;;;;;;;;8.80;99.90;;;;;;5104566;28;20143;-70
2023/05/13 00:18:28;;;;;;;;;;;8.90;99.90;;;;;;5103480;28;19920;-70
2023/05/13 00:20:55;;;;;;;;;;;8.80;99.90;;;;;;5104563;28;19920;-69
2023/05/13 00:23:22;;;;;;;;;;;8.80;99.90;;;;;;5104069;28;19927;-69
2023/05/13 00:25:49;;;;;;;;;;;8.80;99.90;;;;;;5105009;28;19983;-70
2023/05/13 00:28:15;;;;;;;;;;;8.70;99.90;;;;;;5104521;28;20216;-70
2023/05/13 00:30:44;;;;;;;;;;;8.60;99.90;;;;;;5105276;28;19924;-70
2023/05/13 00:33:12;;;;;;;;;;;8.60;99.90;;;;;;5104761;28;20265;-69
2023/05/13 00:35:38;;;;;;;;;;;8.50;99.90;;;;;;5104895;28;19970;-71
2023/05/13 00:38:05;;;;;;;;;;;8.40;99.90;;;;;;5104383;28;19983;-70
2023/05/13 00:40:33;;;;;;;;;;;8.40;99.90;;;;;;5104923;28;19926;-69
2023/05/13 00:43:00;;;;;;;;;;;8.40;99.90;;;;;;5105026;28;19958;-70
2023/05/13 00:45:26;;;;;;;;;;;8.30;99.90;;;;;;5104543;28;19983;-69
2023/05/13 00:47:54;;;;;;;;;;;8.30;99.90;;;;;;5104092;28;19991;-69
2023/05/13 00:50:22;;;;;;;;;;;8.40;99.90;;;;;;5104879;28;19959;-70
2023/05/13 00:52:49;;;;;;;;;;;8.40;99.90;;;;;;5104827;28;19927;-70
2023/05/13 00:55:16;;;;;;;;;;;8.40;99.90;;;;;;5104570;28;20139;-71
2023/05/13 00:57:43;;;;;;;;;;;8.40;99.90;;;;;;5104215;28;19983;-71
2023/05/13 01:00:10;;;;;;;;;;;8.30;99.90;;;;;;5104461;28;20231;-69
2023/05/13 01:02:39;;;;;;;;;;;8.30;99.90;;;;;;5104339;28;19983;-71
2023/05/13 01:05:09;;;;;;;;;;;8.30;99.90;;;;;;5104506;28;19924;-70
2023/05/13 01:07:42;;;;;;;;;;;8.30;99.90;;;;;;5104051;28;19966;-70
2023/05/13 01:10:11;;;;;;;;;;;8.20;99.90;;;;;;5104260;28;20279;-70
2023/05/13 01:12:39;;;;;;;;;;;8.20;99.90;;;;;;5104572;28;19920;-69
2023/05/13 01:15:08;;;;;;;;;;;8.20;99.90;;;;;;5104312;28;19984;-68
2023/05/13 01:17:37;;;;;;;;;;;8.20;99.90;;;;;;5103828;28;19920;-70
2023/05/13 01:20:04;;;;;;;;;;;8.20;99.90;;;;;;5101513;28;20163;-68
2023/05/13 01:22:32;;;;;;;;;;;8.10;99.90;;;;;;5104089;28;20212;-69
2023/05/13 01:24:59;;;;;;;;;;;8.20;99.90;;;;;;5103660;28;19927;-69
2023/05/13 01:27:26;;;;;;;;;;;8.20;99.90;;;;;;5103616;28;20216;-69
2023/05/13 01:29:53;;;;;;;;;;;8.20;99.90;;;;;;5103946;28;19920;-70
2023/05/13 01:32:20;;;;;;;;;;;8.20;99.90;;;;;;5104131;28;19979;-69
2023/05/13 01:34:47;;;;;;;;;;;8.10;99.90;;;;;;5103756;28;20111;-69
2023/05/13 01:37:14;;;;;;;;;;;8.10;99.90;;;;;;5103051;28;19943;-72
2023/05/13 01:39:42;;;;;;;;;;;8.00;99.90;;;;;;5104099;28;20162;-71
2023/05/13 01:42:09;;;;;;;;;;;8.00;99.90;;;;;;5104060;28;19920;-69
2023/05/13 01:44:35;;;;;;;;;;;8.00;99.90;;;;;;5103750;28;19979;-69
2023/05/13 01:47:02;;;;;;;;;;;8.00;99.90;;;;;;5103150;28;19920;-69
2023/05/13 01:49:28;;;;;;;;;;;8.00;99.90;;;;;;5103414;28;19979;-70
2023/05/13 01:51:56;;;;;;;;;;;8.00;99.90;;;;;;5103835;28;19920;-70
2023/05/13 01:54:24;;;;;;;;;;;7.90;99.90;;;;;;5103308;28;19959;-69
2023/05/13 01:56:52;;;;;;;;;;;7.90;99.90;;;;;;5103139;28;19924;-68
2023/05/13 01:59:19;;;;;;;;;;;7.90;99.90;;;;;;5103714;28;19932;-70
2023/05/13 02:01:45;;;;;;;;;;;7.80;99.90;;;;;;5103734;28;19920;-69
2023/05/13 02:04:12;;;;;;;;;;;7.80;99.90;;;;;;5103453;28;19983;-69
2023/05/13 02:06:39;;;;;;;;;;;7.80;99.90;;;;;;5102613;28;19979;-69
2023/05/13 02:09:05;;;;;;;;;;;7.80;99.90;;;;;;5103250;28;19995;-69
2023/05/13 02:11:32;;;;;;;;;;;7.80;99.90;;;;;;5103639;28;19987;-71
2023/05/13 02:14:00;;;;;;;;;;;7.80;99.90;;;;;;5103407;28;19983;-69
2023/05/13 02:16:26;;;;;;;;;;;7.80;99.90;;;;;;5102527;28;20112;-70
2023/05/13 02:18:53;;;;;;;;;;;7.80;99.90;;;;;;5099713;28;19970;-69
2023/05/13 02:21:20;;;;;;;;;;;7.80;99.90;;;;;;5103591;28;19919;-69
2023/05/13 02:23:47;;;;;;;;;;;7.90;99.90;;;;;;5103118;28;19955;-69
2023/05/13 02:26:13;;;;;;;;;;;7.90;99.90;;;;;;5082597;28;19924;-69
2023/05/13 02:28:40;;;;;;;;;;;7.90;99.90;;;;;;5083192;28;19927;-68
2023/05/13 02:31:08;;;;;;;;;;;7.90;99.90;;;;;;5092718;28;20272;-70
2023/05/13 02:33:34;;;;;;;;;;;7.90;99.90;;;;;;5103045;28;19920;-69
2023/05/13 02:36:01;;;;;;;;;;;7.90;99.90;;;;;;5099990;28;19920;-69
2023/05/13 02:38:28;;;;;;;;;;;7.90;99.90;;;;;;5101825;28;20239;-70
2023/05/13 02:40:54;;;;;;;;;;;7.90;99.90;;;;;;5103136;28;19983;-68
2023/05/13 02:43:23;;;;;;;;;;;7.80;99.90;;;;;;5103089;28;20111;-69
2023/05/13 02:45:50;;;;;;;;;;;7.80;99.90;;;;;;5103018;28;19991;-68
2023/05/13 02:48:18;;;;;;;;;;;7.80;99.90;;;;;;5106599;28;19991;-70
2023/05/13 02:50:45;;;;;;;;;;;7.80;99.90;;;;;;5106793;28;19919;-69
2023/05/13 02:53:11;;;;;;;;;;;7.80;99.90;;;;;;5106875;28;19979;-70
2023/05/13 02:55:38;;;;;;;;;;;7.80;99.90;;;;;;5106534;28;19920;-69
2023/05/13 02:58:05;;;;;;;;;;;7.80;99.90;;;;;;5106659;28;20172;-69
2023/05/13 03:00:31;;;;;;;;;;;7.80;99.90;;;;;;5106677;28;20313;-68
2023/05/13 03:02:58;;;;;;;;;;;7.80;99.90;;;;;;5107111;28;19926;-69
2023/05/13 03:05:26;;;;;;;;;;;7.70;99.90;;;;;;5106803;28;20184;-68
2023/05/13 03:07:53;;;;;;;;;;;7.70;99.90;;;;;;5106250;28;19920;-68
2023/05/13 03:10:19;;;;;;;;;;;7.80;99.90;;;;;;5106970;28;19958;-68
2023/05/13 03:12:48;;;;;;;;;;;7.80;99.90;;;;;;5105734;28;21159;-68
2023/05/13 03:15:15;;;;;;;;;;;7.80;99.90;;;;;;5106656;28;19982;-70
2023/05/13 03:17:43;;;;;;;;;;;7.70;99.90;;;;;;5105894;28;19979;-69
2023/05/13 03:20:10;;;;;;;;;;;7.70;99.90;;;;;;5103840;28;19927;-68
2023/05/13 03:22:38;;;;;;;;;;;7.70;99.90;;;;;;5106475;28;20314;-68
2023/05/13 03:25:05;;;;;;;;;;;7.70;99.90;;;;;;5106435;28;19920;-70
2023/05/13 03:27:32;;;;;;;;;;;7.70;99.90;;;;;;5105608;28;19920;-69
2023/05/13 03:29:58;;;;;;;;;;;7.70;99.90;;;;;;5106240;28;19963;-68
2023/05/13 03:32:29;;;;;;;;;;;7.80;99.90;;;;;;5106124;28;20258;-68
2023/05/13 03:34:56;;;;;;;;;;;7.80;99.90;;;;;;5089703;28;19962;-69
2023/05/13 03:37:22;;;;;;;;;;;7.80;99.90;;;;;;5085048;28;19927;-68
2023/05/13 03:39:50;;;;;;;;;;;7.80;99.90;;;;;;5086086;28;19984;-68
2023/05/13 03:42:17;;;;;;;;;;;7.80;99.90;;;;;;5102914;28;20209;-69
2023/05/13 03:44:44;;;;;;;;;;;7.90;99.90;;;;;;5106143;28;19951;-69
2023/05/13 03:47:10;;;;;;;;;;;7.90;99.90;;;;;;5105089;28;20022;-69
2023/05/13 03:49:37;;;;;;;;;;;8.00;99.90;;;;;;5105834;28;19996;-69
2023/05/13 03:52:06;;;;;;;;;;;7.90;99.90;;;;;;5106119;28;19924;-68
2023/05/13 03:54:33;;;;;;;;;;;8.00;99.90;;;;;;5105920;28;19969;-70
2023/05/13 03:57:01;;;;;;;;;;;8.00;99.90;;;;;;5105178;28;19920;-68
2023/05/13 03:59:27;;;;;;;;;;;8.10;99.90;;;;;;5105729;28;19958;-70
2023/05/13 04:01:54;;;;;;;;;;;8.10;99.90;;;;;;5105693;28;20000;-68
2023/05/13 04:04:21;;;;;;;;;;;8.10;99.90;;;;;;5105337;28;19983;-68
2023/05/13 04:06:47;;;;;;;;;;;8.10;99.90;;;;;;5104702;28;19959;-69
2023/05/13 04:09:14;;;;;;;;;;;8.10;99.90;;;;;;5105560;28;20175;-68
2023/05/13 04:11:41;;;;;;;;;;;8.10;99.90;;;;;;5105409;28;19928;-68
2023/05/13 04:14:09;;;;;;;;;;;8.20;99.90;;;;;;5105229;28;20025;-70
2023/05/13 04:16:35;;;;;;;;;;;8.20;99.90;;;;;;5104703;28;19926;-70
2023/05/13 04:19:02;;;;;;;;;;;8.20;99.90;;;;;;5102602;28;19970;-68
2023/05/13 04:21:30;;;;;;;;;;;8.30;99.90;;;;;;5105404;28;19955;-70
2023/05/13 04:23:56;;;;;;;;;;;8.30;99.90;;;;;;5105142;28;19926;-70
2023/05/13 04:26:23;;;;;;;;;;;8.30;99.90;;;;;;5104222;28;19920;-68
2023/05/13 04:28:50;;;;;;;;;;;8.30;99.90;;;;;;5105250;28;19920;-69
2023/05/13 04:31:18;;;;;;;;;;;8.30;99.90;;;;;;5105205;28;19935;-69
2023/05/13 04:33:45;;;;;;;;;;;8.30;99.90;;;;;;5088877;28;19987;-70
2023/05/13 04:36:11;;;;;;;;;;;8.30;99.90;;;;;;5084675;28;19982;-69
2023/05/13 04:38:38;;;;;;;;;;;8.30;99.90;;;;;;5084938;28;19956;-68
2023/05/13 04:41:05;;;;;;;;;;;8.30;99.90;;;;;;5084832;28;19920;-70
2023/05/13 04:43:31;;;;;;;;;;;8.40;99.90;;;;;;5098996;28;19920;-68
2023/05/13 04:45:58;;;;;;;;;;;8.40;99.90;;;;;;5104362;28;19920;-69
2023/05/13 04:48:27;;;;;;;;;;;8.40;99.90;;;;;;5091201;28;19963;-69
2023/05/13 04:50:53;;;;;;;;;;;8.40;99.90;;;;;;5104473;28;19997;-69
2023/05/13 04:53:20;;;;;;;;;;;8.50;99.90;;;;;;5104569;28;19987;-69
2023/05/13 04:55:47;;;;;;;;;;;8.50;99.90;;;;;;5104564;28;19929;-69
2023/05/13 04:58:13;;;;;;;;;;;8.60;99.90;;;;;;5104019;28;20369;-69
2023/05/13 05:00:40;;;;;;;;;;;8.60;99.90;;;;;;5104867;28;19959;-69
2023/05/13 05:03:07;;;;;;;;;;;8.70;99.90;;;;;;5104315;28;19987;-70
2023/05/13 05:05:35;;;;;;;;;;;8.70;99.90;;;;;;5104079;28;19920;-69
2023/05/13 05:08:01;;;;;;;;;;;8.70;99.90;;;;;;5101583;28;19958;-69
2023/05/13 05:10:28;;;;;;;;;;;8.70;99.90;;;;;;5103566;28;19935;-68
2023/05/13 05:12:55;;;;;;;;;;;8.70;99.90;;;;;;5104422;28;20264;-69
2023/05/13 05:15:21;;;;;;;;;;;8.70;99.90;;;;;;5104209;28;19992;-70
2023/05/13 05:17:48;;;;;;;;;;;8.80;99.90;;;;;;5103736;28;19920;-69
2023/05/13 05:20:14;;;;;;;;;;;8.80;99.90;;;;;;5099309;28;19954;-71
2023/05/13 05:22:42;;;;;;;;;;;8.80;99.90;;;;;;5104036;28;19988;-69
2023/05/13 05:25:10;;;;;;;;;;;8.90;99.90;;;;;;5104043;28;19987;-70
2023/05/13 05:27:37;;;;;;;;;;;8.90;99.90;;;;;;5101599;28;19920;-69
2023/05/13 05:30:04;;;;;;;;;;;9.00;99.90;;;;;;5103973;28;20004;-69
2023/05/13 05:32:30;;;;;;;;;;;9.00;99.90;;;;;;5103887;28;19920;-69
2023/05/13 05:34:57;;;;;;;;;;;9.00;99.90;;;;;;5104168;28;20168;-69
2023/05/13 05:37:23;;;;;;;;;;;9.10;99.90;;;;;;5103120;28;19958;-69
2023/05/13 05:39:51;;;;;;;;;;;9.20;99.90;;;;;;5101673;28;19987;-68
2023/05/13 05:42:18;;;;;;;;;;;9.20;99.90;;;;;;5103657;28;19934;-69
2023/05/13 05:44:46;;;;;;;;;;;9.30;99.90;;;;;;5103183;28;19987;-69
2023/05/13 05:47:13;;;;;;;;;;;9.30;99.90;;;;;;5123021;28;19923;-70
2023/05/13 05:49:39;;;;;;;;;;;9.40;99.90;;;;;;5103445;28;19959;-69
2023/05/13 05:52:06;;;;;;;;;;;9.40;99.90;;;;;;5103486;28;19952;-68
2023/05/13 05:54:32;;;;;;;;;;;9.50;99.90;;;;;;5103712;28;20022;-69
2023/05/13 05:57:00;;;;;;;;;;;9.50;99.90;;;;;;5103007;28;19986;-68
2023/05/13 05:59:27;;;;;;;;;;;9.60;99.90;;;;;;5103150;28;19919;-69
2023/05/13 06:01:54;;;;;;;;;;;9.60;99.90;;;;;;5103540;28;19983;-68
2023/05/13 06:04:20;;;;;;;;;;;9.70;99.90;;;;;;5103831;28;19926;-68
2023/05/13 06:06:48;;;;;;;;;;;9.70;99.90;;;;;;5100313;28;19998;-69
2023/05/13 06:09:15;;;;;;;;;;;9.70;99.90;;;;;;5103280;28;19920;-69
2023/05/13 06:11:41;;;;;;;;;;;9.80;99.90;;;;;;5103486;28;19987;-68
2023/05/13 06:14:09;;;;;;;;;;;9.80;99.90;;;;;;5103286;28;19947;-67
2023/05/13 06:16:36;;;;;;;;;;;9.80;99.90;;;;;;5081867;28;19952;-67
2023/05/13 06:19:02;;;;;;;;;;;9.80;99.90;;;;;;5099875;28;20228;-67
2023/05/13 06:21:30;;;;;;;;;;;9.90;99.90;;;;;;5095847;28;19920;-67
2023/05/13 06:23:57;;;;;;;;;;;9.90;99.90;;;;;;5087121;28;19920;-68
2023/05/13 06:26:23;;;;;;;;;;;9.90;99.90;;;;;;5086930;28;19951;-68
2023/05/13 06:28:50;;;;;;;;;;;10.00;99.90;;;;;;5087140;28;19987;-65
2023/05/13 06:31:18;;;;;;;;;;;10.00;99.90;;;;;;5087072;28;19920;-68
2023/05/13 06:33:45;;;;;;;;;;;10.10;99.90;;;;;;5088098;28;19988;-67
2023/05/13 06:36:12;;;;;;;;;;;10.10;99.90;;;;;;5086925;28;19979;-66
2023/05/13 06:38:38;;;;;;;;;;;10.20;99.90;;;;;;5095900;28;19927;-66
2023/05/13 06:41:05;;;;;;;;;;;10.20;99.90;;;;;;5104973;28;19991;-66
2023/05/13 06:43:32;;;;;;;;;;;10.30;99.90;;;;;;5106762;28;19920;-67
2023/05/13 06:45:58;;;;;;;;;;;10.30;99.90;;;;;;5107028;28;20003;-66
2023/05/13 06:48:26;;;;;;;;;;;10.30;99.90;;;;;;5107037;28;20183;-67
2023/05/13 06:50:53;;;;;;;;;;;10.30;99.90;;;;;;5104137;28;20325;-66
2023/05/13 06:53:19;;;;;;;;;;;10.30;99.90;;;;;;5086484;28;19958;-66
2023/05/13 06:55:46;;;;;;;;;;;10.40;99.90;;;;;;5090943;28;19997;-66
2023/05/13 06:58:13;;;;;;;;;;;10.40;99.90;;;;;;5106487;28;19920;-66
2023/05/13 07:00:40;;;;;;;;;;;10.50;99.90;;;;;;5106939;28;19940;-66
2023/05/13 07:03:07;;;;;;;;;;;10.50;99.90;;;;;;5106976;28;19992;-66
2023/05/13 07:05:35;;;;;;;;;;;10.50;99.90;;;;;;5106577;28;19958;-65
2023/05/13 07:08:05;;;;;;;;;;;10.50;99.90;;;;;;5103427;28;19987;-68
2023/05/13 07:10:32;;;;;;;;;;;10.50;99.90;;;;;;5106414;28;19928;-67
2023/05/13 07:12:59;;;;;;;;;;;10.60;99.90;;;;;;5106501;28;19920;-67
2023/05/13 07:15:25;;;;;;;;;;;10.70;99.90;;;;;;5106417;28;19926;-66
2023/05/13 07:17:52;;;;;;;;;;;10.70;99.90;;;;;;5105484;28;19926;-69
2023/05/13 07:20:20;;;;;;;;;;;10.70;99.90;;;;;;5105302;28;19928;-65
2023/05/13 07:22:48;;;;;;;;;;;10.70;99.90;;;;;;5106619;28;20108;-66
2023/05/13 07:25:15;;;;;;;;;;;10.80;99.90;;;;;;5106176;28;19919;-65
2023/05/13 07:27:42;;;;;;;;;;;10.90;99.90;;;;;;5105835;28;19983;-67
2023/05/13 07:30:09;;;;;;;;;;;11.00;99.90;;;;;;5105095;28;19993;-67
2023/05/13 07:32:36;;;;;;;;;;;11.10;99.90;;;;;;5104477;28;20143;-65
2023/05/13 07:35:03;;;;;;;;;;;11.10;99.90;;;;;;5101087;28;19928;-66
2023/05/13 07:37:30;;;;;;;;;;;11.10;99.90;;;;;;5104019;28;19920;-67
2023/05/13 07:39:57;;;;;;;;;;;11.10;99.90;;;;;;5106296;28;19920;-67
2023/05/13 07:42:24;;;;;;;;;;;11.20;99.90;;;;;;5105913;28;20227;-68
2023/05/13 07:44:51;;;;;;;;;;;11.20;99.90;;;;;;5106093;28;19927;-66
2023/05/13 07:47:18;;;;;;;;;;;11.30;99.90;;;;;;5101114;28;19943;-69
2023/05/13 07:49:44;;;;;;;;;;;11.30;99.90;;;;;;5085584;28;20004;-69
2023/05/13 07:52:11;;;;;;;;;;;11.40;99.90;;;;;;5089100;28;20256;-66
2023/05/13 07:54:38;;;;;;;;;;;11.40;99.90;;;;;;5105874;28;20113;-66
2023/05/13 07:57:06;;;;;;;;;;;11.50;99.90;;;;;;5103382;28;19985;-68
2023/05/13 07:59:33;;;;;;;;;;;11.50;99.90;;;;;;5102490;28;19959;-66
2023/05/13 08:01:59;;;;;;;;;;;11.60;99.90;;;;;;5105457;28;19963;-65
2023/05/13 08:04:26;;;;;;;;;;;11.70;99.90;;;;;;5104160;28;19983;-67
2023/05/13 08:06:53;;;;;;;;;;;11.80;99.90;;;;;;5104710;28;20163;-67
2023/05/13 08:09:19;;;;;;;;;;;11.80;99.90;;;;;;5105694;28;19991;-66
2023/05/13 08:11:46;;;;;;;;;;;11.80;99.90;;;;;;5105649;28;19987;-67
2023/05/13 08:14:14;;;;;;;;;;;11.80;99.90;;;;;;5105523;28;19927;-67
2023/05/13 08:16:40;;;;;;;;;;;11.90;99.90;;;;;;5105009;28;19926;-66
2023/05/13 08:19:07;;;;;;;;;;;12.00;99.90;;;;;;5088941;28;19951;-66
2023/05/13 08:21:34;;;;;;;;;;;12.00;99.90;;;;;;5105444;28;20140;-66
2023/05/13 08:24:01;;;;;;;;;;;12.00;99.90;;;;;;5105360;28;19983;-66
2023/05/13 08:26:27;;;;;;;;;;;12.10;99.90;;;;;;5093153;28;19921;-66
2023/05/13 08:28:56;;;;;;;;;;;12.10;99.90;;;;;;5085046;28;19920;-66
2023/05/13 08:31:24;;;;;;;;;;;12.00;99.90;;;;;;5084619;28;19920;-66
2023/05/13 08:33:52;;;;;;;;;;;12.00;99.90;;;;;;5085445;28;19921;-68
2023/05/13 08:36:18;;;;;;;;;;;12.00;99.90;;;;;;5104347;28;19927;-66
2023/05/13 08:38:45;;;;;;;;;;;12.00;99.90;;;;;;5105070;28;19955;-66
2023/05/13 08:41:12;;;;;;;;;;;12.00;99.90;;;;;;5105137;28;19927;-67
2023/05/13 08:43:39;;;;;;;;;;;12.00;99.90;;;;;;5104496;28;19966;-67
2023/05/13 08:46:08;;;;;;;;;;;12.10;99.90;;;;;;5103816;28;19934;-66
2023/05/13 08:48:36;;;;;;;;;;;12.10;99.90;;;;;;5104711;28;19920;-66
2023/05/13 08:51:03;;;;;;;;;;;12.20;99.90;;;;;;5103841;28;19926;-67
2023/05/13 08:53:30;;;;;;;;;;;12.20;99.90;;;;;;5099885;28;20216;-65
2023/05/13 08:55:57;;;;;;;;;;;12.20;99.90;;;;;;5094464;28;19974;-69
2023/05/13 08:58:24;;;;;;;;;;;12.20;99.90;;;;;;5102011;28;19943;-67
2023/05/13 09:00:51;;;;;;;;;;;12.30;99.90;;;;;;5083945;28;20256;-67
2023/05/13 09:03:18;;;;;;;;;;;12.30;99.90;;;;;;5082413;28;19921;-66
2023/05/13 09:05:47;;;;;;;;;;;12.30;99.90;;;;;;5083123;28;20115;-66
2023/05/13 09:08:13;;;;;;;;;;;12.30;99.90;;;;;;5083717;28;19926;-68
2023/05/13 09:10:40;;;;;;;;;;;12.30;99.90;;;;;;5084244;28;19927;-66
2023/05/13 09:13:07;;;;;;;;;;;12.30;99.90;;;;;;5095251;28;19980;-67
2023/05/13 09:15:34;;;;;;;;;;;12.30;99.90;;;;;;5102986;28;20258;-68
2023/05/13 09:18:01;;;;;;;;;;;12.30;99.90;;;;;;5100827;28;19920;-66
2023/05/13 09:20:28;;;;;;;;;;;12.30;99.90;;;;;;5104020;28;19991;-66
2023/05/13 09:22:57;;;;;;;;;;;12.30;99.90;;;;;;5104345;28;19927;-66
2023/05/13 09:25:24;;;;;;;;;;;12.30;99.90;;;;;;5100958;28;19920;-65
2023/05/13 09:27:52;;;;;;;;;;;12.30;99.90;;;;;;5083646;28;19921;-66
2023/05/13 09:30:19;;;;;;;;;;;12.30;99.90;;;;;;5083827;28;19969;-67
2023/05/13 09:33:03;;;;;;;;;;;12.30;99.90;;;;;;5081859;28;19928;-69
2023/05/13 09:35:31;;;;;;;;;;;12.30;99.90;;;;;;5083813;28;19920;-68
2023/05/13 09:37:59;;;;;;;;;;;12.40;99.90;;;;;;5083101;28;19992;-67
2023/05/13 09:40:25;;;;;;;;;;;12.40;99.90;;;;;;5083448;28;20209;-67
2023/05/13 09:42:56;;;;;;;;;;;12.40;99.90;;;;;;5083546;28;19988;-68
2023/05/13 09:45:23;;;;;;;;;;;12.50;99.90;;;;;;5083738;28;19943;-67
2023/05/13 09:47:51;;;;;;;;;;;12.60;99.90;;;;;;5083161;28;19942;-66
2023/05/13 09:50:18;;;;;;;;;;;12.60;99.90;;;;;;5083575;28;19927;-66
2023/05/13 09:52:45;;;;;;;;;;;12.60;99.90;;;;;;5083366;28;20230;-66
2023/05/13 09:55:13;;;;;;;;;;;12.60;99.90;;;;;;5083247;28;19920;-66
2023/05/13 09:57:41;;;;;;;;;;;12.60;99.90;;;;;;5082811;28;19927;-67
2023/05/13 10:00:08;;;;;;;;;;;12.60;99.90;;;;;;5083537;28;19987;-66
2023/05/13 10:02:34;;;;;;;;;;;12.60;99.90;;;;;;5083550;28;19924;-68
2023/05/13 10:05:01;;;;;;;;;;;12.60;99.90;;;;;;5083226;28;19987;-68
2023/05/13 10:07:28;;;;;;;;;;;12.60;99.90;;;;;;5082848;28;20125;-67
2023/05/13 10:10:00;;;;;;;;;;;12.60;99.90;;;;;;5083561;28;20175;-66
2023/05/13 10:12:29;;;;;;;;;;;12.60;99.90;;;;;;5083124;28;19921;-67
2023/05/13 10:14:56;;;;;;;;;;;12.60;99.90;;;;;;5082934;28;19980;-66
2023/05/13 10:17:24;;;;;;;;;;;12.60;99.90;;;;;;5083156;28;19956;-66
2023/05/13 10:19:51;;;;;;;;;;;12.70;99.90;;;;;;5082712;28;19928;-68
2023/05/13 10:22:21;;;;;;;;;;;12.70;99.90;;;;;;5083167;28;19921;-67
2023/05/13 10:24:48;;;;;;;;;;;12.70;99.90;;;;;;5083204;28;20204;-67
2023/05/13 10:27:15;;;;;;;;;;;12.70;99.90;;;;;;5101516;28;19962;-67
2023/05/13 10:29:44;;;;;;;;;;;12.70;99.90;;;;;;5100391;28;19982;-66
2023/05/13 10:32:12;;;;;;;;;;;12.60;99.90;;;;;;5103623;28;19983;-67
2023/05/13 10:34:39;;;;;;;;;;;12.60;99.90;;;;;;5084142;28;19979;-66
2023/05/13 10:37:17;;;;;;;;;;;12.60;99.90;;;;;;5081104;28;19920;-66
2023/05/13 10:39:59;;;;;;;;;;;12.60;99.90;;;;;;5082588;28;19927;-66
2023/05/13 10:42:37;;;;;;;;;;;12.70;99.90;;;;;;5083208;28;19987;-67
2023/05/13 10:45:05;;;;;;;;;;;12.80;99.90;;;;;;5082308;28;19920;-68
2023/05/13 10:47:32;;;;;;;;;;;13.00;99.90;;;;;;5082682;28;20154;-66
2023/05/13 10:50:03;;;;;;;;;;;13.20;99.90;;;;;;5082699;28;19943;-66
2023/05/13 10:52:41;;;;;;;;;;;13.40;99.90;;;;;;5082746;28;20171;-66
2023/05/13 10:55:14;;;;;;;;;;;13.60;99.90;;;;;;5083033;28;19984;-67
2023/05/13 10:57:41;;;;;;;;;;;13.80;99.90;;;;;;5094736;28;19983;-67
2023/05/13 11:00:15;;;;;;;;;;;13.80;99.90;;;;;;5103161;28;19979;-67
2023/05/13 11:02:42;;;;;;;;;;;13.80;99.90;;;;;;5103305;28;20141;-67
2023/05/13 11:05:09;;;;;;;;;;;13.80;99.90;;;;;;5103310;28;19920;-68
2023/05/13 11:07:37;;;;;;;;;;;13.70;99.90;;;;;;5103871;28;20219;-67
2023/05/13 11:10:05;;;;;;;;;;;13.70;99.90;;;;;;5106615;28;20226;-67
2023/05/13 11:12:31;;;;;;;;;;;13.70;99.90;;;;;;5105413;28;19927;-67
2023/05/13 11:14:58;;;;;;;;;;;13.80;99.90;;;;;;5105631;28;19982;-67
2023/05/13 11:17:26;;;;;;;;;;;13.90;99.90;;;;;;5106169;28;19991;-66
2023/05/13 11:19:53;;;;;;;;;;;14.00;99.90;;;;;;5106742;28;19995;-68
2023/05/13 11:22:20;;;;;;;;;;;14.00;99.90;;;;;;5106643;28;19962;-68
2023/05/13 11:25:02;;;;;;;;;;;14.00;99.90;;;;;;5106362;28;19920;-68
2023/05/13 11:27:32;;;;;;;;;;;14.00;99.90;;;;;;5085953;28;19980;-66
2023/05/13 11:29:59;;;;;;;;;;;14.00;99.90;;;;;;5093570;28;19956;-67
2023/05/13 11:32:44;;;;;;;;;;;13.90;99.90;;;;;;5105891;28;19994;-66
2023/05/13 11:35:12;;;;;;;;;;;13.90;99.90;;;;;;5104657;28;19920;-67
2023/05/13 11:37:42;;;;;;;;;;;13.80;99.90;;;;;;5104433;28;20164;-66
2023/05/13 11:40:10;;;;;;;;;;;13.80;99.90;;;;;;5105197;28;19926;-67
2023/05/13 11:42:38;;;;;;;;;;;13.80;99.90;;;;;;5105468;28;20205;-66
2023/05/13 11:45:07;;;;;;;;;;;13.80;99.90;;;;;;5106101;28;19987;-66
2023/05/13 11:47:33;;;;;;;;;;;13.80;99.90;;;;;;5105672;28;19920;-66
2023/05/13 11:50:00;;;;;;;;;;;13.80;99.90;;;;;;5106142;28;19982;-66
2023/05/13 11:52:28;;;;;;;;;;;13.80;99.90;;;;;;5105812;28;20175;-67
2023/05/13 11:54:57;;;;;;;;;;;13.80;99.90;;;;;;5105419;28;19996;-66
2023/05/13 11:57:24;;;;;;;;;;;13.90;99.90;;;;;;5105064;28;20284;-66
2023/05/13 11:59:54;;;;;;;;;;;13.90;99.90;;;;;;5105263;28;20243;-66
2023/05/13 12:02:21;;;;;;;;;;;14.00;99.90;;;;;;5105834;28;19927;-66
2023/05/13 12:04:48;;;;;;;;;;;14.00;99.90;;;;;;5105703;28;20093;-67
2023/05/13 12:07:19;;;;;;;;;;;13.90;99.90;;;;;;5105103;28;19921;-66
2023/05/13 12:09:47;;;;;;;;;;;13.90;99.90;;;;;;5105681;28;20110;-67
2023/05/13 12:12:14;;;;;;;;;;;14.00;99.90;;;;;;5105583;28;19920;-66
2023/05/13 12:14:42;;;;;;;;;;;14.20;99.90;;;;;;5105173;28;19962;-66
2023/05/13 12:17:08;;;;;;;;;;;14.40;99.90;;;;;;5105048;28;19924;-66
2023/05/13 12:19:36;;;;;;;;;;;14.50;99.90;;;;;;5105175;28;20166;-67
2023/05/13 12:22:02;;;;;;;;;;;14.60;99.90;;;;;;5104622;28;20129;-66
2023/05/13 12:24:32;;;;;;;;;;;14.60;99.90;;;;;;5104731;28;19920;-67
2023/05/13 12:27:06;;;;;;;;;;;14.60;99.90;;;;;;5104910;28;19987;-68
2023/05/13 12:29:39;;;;;;;;;;;14.50;99.90;;;;;;5105304;28;20112;-68
2023/05/13 12:32:06;;;;;;;;;;;14.50;99.90;;;;;;5105130;28;19920;-69
2023/05/13 12:34:33;;;;;;;;;;;14.50;99.90;;;;;;5104813;28;19962;-68
2023/05/13 12:37:09;;;;;;;;;;;14.50;99.90;;;;;;5103894;28;20226;-68
2023/05/13 12:39:36;;;;;;;;;;;14.50;99.90;;;;;;5104728;28;19920;-68
2023/05/13 12:42:03;;;;;;;;;;;14.50;99.90;;;;;;5104906;28;19982;-69
2023/05/13 12:44:31;;;;;;;;;;;14.50;99.90;;;;;;5104906;28;20123;-69
2023/05/13 12:46:58;;;;;;;;;;;14.50;99.90;;;;;;5104160;28;19926;-69
2023/05/13 12:49:25;;;;;;;;;;;14.50;99.90;;;;;;5104924;28;19951;-69
2023/05/13 12:51:51;;;;;;;;;;;14.40;99.90;;;;;;5104875;28;19927;-69
2023/05/13 12:54:18;;;;;;;;;;;14.40;99.90;;;;;;5104669;28;20087;-67
2023/05/13 12:56:45;;;;;;;;;;;14.30;99.90;;;;;;5103978;28;20163;-68
2023/05/13 12:59:12;;;;;;;;;;;14.20;99.90;;;;;;5104457;28;19955;-72
2023/05/13 13:01:41;;;;;;;;;;;14.20;99.90;;;;;;5104249;28;19920;-67
2023/05/13 13:04:07;;;;;;;;;;;14.10;99.90;;;;;;5104393;28;19943;-68
2023/05/13 13:06:34;;;;;;;;;;;14.00;99.90;;;;;;5093226;28;19979;-70
2023/05/13 13:09:01;;;;;;;;;;;14.10;99.90;;;;;;5084373;28;19921;-68
2023/05/13 13:11:28;;;;;;;;;;;14.00;99.90;;;;;;5084179;28;20034;-67
2023/05/13 13:13:55;;;;;;;;;;;14.00;99.90;;;;;;5084136;28;20150;-67
2023/05/13 13:16:22;;;;;;;;;;;14.00;99.90;;;;;;5083879;28;19927;-67
2023/05/13 13:18:50;;;;;;;;;;;14.00;99.90;;;;;;5083746;28;19984;-67
2023/05/13 13:21:16;;;;;;;;;;;14.00;99.90;;;;;;5102340;28;19962;-67
2023/05/13 13:23:43;;;;;;;;;;;14.00;99.90;;;;;;5104090;28;19984;-67
2023/05/13 13:26:10;;;;;;;;;;;14.00;99.90;;;;;;5094525;28;20089;-69
2023/05/13 13:28:37;;;;;;;;;;;14.00;99.90;;;;;;5083906;28;20124;-69
2023/05/13 13:31:04;;;;;;;;;;;14.00;99.90;;;;;;5083372;28;19935;-67
2023/05/13 13:33:30;;;;;;;;;;;14.00;99.90;;;;;;5084451;28;20275;-68
2023/05/13 13:35:58;;;;;;;;;;;14.10;99.90;;;;;;5100694;28;19959;-68
2023/05/13 13:38:25;;;;;;;;;;;14.20;99.90;;;;;;5101068;28;19920;-69
2023/05/13 13:40:51;;;;;;;;;;;14.30;99.90;;;;;;5103874;28;19920;-68
2023/05/13 13:43:18;;;;;;;;;;;14.40;99.90;;;;;;5103692;28;19955;-67
2023/05/13 13:45:45;;;;;;;;;;;14.50;99.90;;;;;;5103222;28;19987;-66
2023/05/13 13:48:11;;;;;;;;;;;14.60;99.90;;;;;;5103380;28;19998;-66
2023/05/13 13:50:38;;;;;;;;;;;14.60;99.90;;;;;;5094188;28;19958;-68
2023/05/13 13:53:06;;;;;;;;;;;14.80;99.90;;;;;;5096465;28;19951;-66
2023/05/13 13:55:33;;;;;;;;;;;14.80;99.90;;;;;;5102727;28;19983;-69
2023/05/13 13:57:59;;;;;;;;;;;14.90;99.90;;;;;;5092424;28;20236;-71
2023/05/13 14:00:26;;;;;;;;;;;14.90;99.90;;;;;;5083248;28;20233;-66
2023/05/13 14:02:52;;;;;;;;;;;14.90;99.90;;;;;;5083495;28;19955;-72
2023/05/13 14:05:19;;;;;;;;;;;15.00;99.90;;;;;;5083307;28;19987;-69
2023/05/13 14:07:47;;;;;;;;;;;15.00;99.90;;;;;;5094962;28;19920;-67
2023/05/13 14:10:15;;;;;;;;;;;15.10;99.90;;;;;;5098905;28;19987;-67
2023/05/13 14:12:41;;;;;;;;;;;15.10;99.90;;;;;;5083440;28;19983;-67
2023/05/13 14:15:08;;;;;;;;;;;15.20;99.90;;;;;;5088437;28;20185;-67
2023/05/13 14:17:35;;;;;;;;;;;15.20;99.90;;;;;;5083215;28;19926;-67
2023/05/13 14:20:02;;;;;;;;;;;15.20;99.90;;;;;;5093719;28;20226;-67
2023/05/13 14:22:29;;;;;;;;;;;15.20;99.90;;;;;;5093000;28;20204;-68
2023/05/13 14:24:55;;;;;;;;;;;15.20;99.90;;;;;;5083238;28;19984;-69